EGXU

RAF Linton-On-Ouse Airport

Linton-On-Ouse, United Kingdom
METAR EGXU 222050Z AUTO 25006KT 9999 // FEW070/// 10/06 Q1008
Observed Flight Rules
Apr-22 @ 20:50 UTC (57 minutes ago) Visual Flight Rules
Wind Visibility Clouds
250° at 6 knots 10,000+ meters
  • Few at 7,000' AGL
Temperatures Readings
Current 10°C / 50°F
Dewpoint 6°C / 43°F
Humidity 76%
Altimeter 29.76" Hg
Pressure 1008 hPa
Elevation 16
METAR EGXU 222050Z AUTO 25006KT 9999 // FEW070/// 10/06 Q1008
Observed Flight Rules
Apr-22 @ 20:50 UTC
(57 minutes ago)
VFR
Wind Visibility
250° at 6 knots 10,000+ meters
Clouds
  • Few at 7,000' AGL
Temperature Dewpoint
10°C / 50°F 6°C / 43°F
Humidity Altimeter Pressure
76% 29.76" Hg 1008 hPa